createdAt,value
2023-01-22T00:00:10.588Z,6.00
2023-01-22T00:02:40.188Z,5.90
2023-01-22T00:05:07.513Z,5.90
2023-01-22T00:07:34.529Z,6.00
2023-01-22T00:10:01.325Z,6.00
2023-01-22T00:12:28.190Z,6.00
2023-01-22T00:14:55.024Z,6.00
2023-01-22T00:17:21.789Z,6.00
2023-01-22T00:19:48.635Z,6.00
2023-01-22T00:22:15.489Z,6.00
2023-01-22T00:24:42.328Z,6.00
2023-01-22T00:27:09.335Z,6.00
2023-01-22T00:29:36.283Z,6.00
2023-01-22T00:32:03.372Z,6.00
2023-01-22T00:34:30.446Z,6.00
2023-01-22T00:36:58.232Z,6.00
2023-01-22T00:39:25.025Z,6.00
2023-01-22T00:41:52.216Z,6.00
2023-01-22T00:44:19.240Z,6.00
2023-01-22T00:46:46.836Z,6.00
2023-01-22T00:49:13.707Z,5.90
2023-01-22T00:51:40.575Z,5.90
2023-01-22T00:54:08.949Z,5.90
2023-01-22T00:56:35.745Z,5.90
2023-01-22T00:59:10.016Z,6.00
2023-01-22T01:01:38.623Z,5.90
2023-01-22T01:04:05.804Z,5.90
2023-01-22T01:06:33.082Z,5.90
2023-01-22T01:08:59.937Z,5.90
2023-01-22T01:11:26.789Z,5.90
2023-01-22T01:13:54.228Z,5.90
2023-01-22T01:16:29.738Z,5.90
2023-01-22T01:19:02.534Z,5.90
2023-01-22T01:21:30.696Z,5.90
2023-01-22T01:23:59.503Z,5.90
2023-01-22T01:26:27.249Z,5.90
2023-01-22T01:28:55.732Z,5.90
2023-01-22T01:31:26.178Z,5.90
2023-01-22T01:33:53.794Z,5.90
2023-01-22T01:36:46.275Z,5.90
2023-01-22T01:39:11.135Z,5.90
2023-01-22T01:41:37.942Z,5.90
2023-01-22T01:44:13.878Z,5.90
2023-01-22T01:46:47.140Z,5.90
2023-01-22T01:49:31.102Z,5.90
2023-01-22T01:52:02.406Z,5.90
2023-01-22T01:54:30.604Z,5.90
2023-01-22T01:57:02.817Z,5.90
2023-01-22T01:59:33.485Z,5.90
2023-01-22T02:02:02.270Z,5.90
2023-01-22T02:04:30.101Z,5.90
2023-01-22T02:06:56.999Z,5.90
2023-01-22T02:09:24.222Z,5.90
2023-01-22T02:11:52.032Z,5.90
2023-01-22T02:14:23.884Z,5.90
2023-01-22T02:17:20.294Z,5.90
2023-01-22T02:19:50.602Z,5.90
2023-01-22T02:22:28.888Z,6.00
2023-01-22T02:24:56.134Z,6.00
2023-01-22T02:27:23.063Z,6.00
2023-01-22T02:29:50.586Z,5.90
2023-01-22T02:32:17.731Z,5.90
2023-01-22T02:34:44.757Z,5.90
2023-01-22T02:37:11.999Z,5.90
2023-01-22T02:39:38.906Z,6.00
2023-01-22T02:42:08.190Z,6.00
2023-01-22T02:44:35.729Z,6.00
2023-01-22T02:47:02.688Z,6.00
2023-01-22T02:49:29.465Z,5.90
2023-01-22T02:51:56.334Z,5.90
2023-01-22T02:54:24.216Z,5.90
2023-01-22T02:56:50.983Z,5.90
2023-01-22T02:59:17.995Z,5.90
2023-01-22T03:01:44.834Z,5.90
2023-01-22T03:04:11.724Z,6.00
2023-01-22T03:06:43.261Z,6.00
2023-01-22T03:09:15.792Z,6.00
2023-01-22T03:11:45.326Z,6.00
2023-01-22T03:14:43.769Z,6.00
2023-01-22T03:17:29.157Z,6.00
2023-01-22T03:20:14.420Z,6.00
2023-01-22T03:22:41.297Z,5.90
2023-01-22T03:25:08.342Z,6.00
2023-01-22T03:27:36.820Z,6.00
2023-01-22T03:30:04.508Z,6.00
2023-01-22T03:32:34.599Z,5.90
2023-01-22T03:35:01.846Z,5.90
2023-01-22T03:37:39.472Z,5.90
2023-01-22T03:40:08.497Z,5.90
2023-01-22T03:42:38.035Z,5.90
2023-01-22T03:45:06.754Z,5.90
2023-01-22T03:47:37.182Z,6.00
2023-01-22T03:50:17.671Z,6.00
2023-01-22T03:52:45.335Z,5.90
2023-01-22T03:55:12.093Z,5.90
2023-01-22T03:57:38.855Z,5.90
2023-01-22T04:00:07.783Z,5.90
2023-01-22T04:02:39.385Z,5.90
2023-01-22T04:05:16.379Z,5.90
2023-01-22T04:07:44.334Z,5.90
2023-01-22T04:10:12.323Z,5.90
2023-01-22T04:12:39.153Z,5.90
2023-01-22T04:15:07.254Z,5.90
2023-01-22T04:17:34.184Z,5.90
2023-01-22T04:20:40.102Z,5.90
2023-01-22T04:23:27.225Z,5.90
2023-01-22T04:25:54.480Z,5.90
2023-01-22T04:28:21.856Z,5.90
2023-01-22T04:30:54.892Z,5.90
2023-01-22T04:33:43.611Z,5.90
2023-01-22T04:36:15.547Z,6.00
2023-01-22T04:38:42.633Z,5.90
2023-01-22T04:41:09.593Z,6.00
2023-01-22T04:43:36.406Z,6.00
2023-01-22T04:46:03.509Z,6.00
2023-01-22T04:48:32.302Z,6.00
2023-01-22T04:51:00.297Z,6.00
2023-01-22T04:53:29.591Z,6.00
2023-01-22T04:55:56.367Z,6.00
2023-01-22T04:58:23.143Z,6.00
2023-01-22T05:00:51.185Z,6.00
2023-01-22T05:03:18.039Z,6.00
2023-01-22T05:05:44.859Z,6.00
2023-01-22T05:08:12.383Z,6.00
2023-01-22T05:10:39.308Z,6.00
2023-01-22T05:13:08.796Z,6.00
2023-01-22T05:15:36.913Z,6.00
2023-01-22T05:18:08.436Z,6.00
2023-01-22T05:20:37.220Z,6.00
2023-01-22T05:23:04.637Z,6.00
2023-01-22T05:25:32.123Z,6.00
2023-01-22T05:27:59.545Z,6.00
2023-01-22T05:30:53.606Z,6.00
2023-01-22T05:33:33.986Z,6.00
2023-01-22T05:36:02.495Z,6.00
2023-01-22T05:38:30.573Z,6.00
2023-01-22T05:40:58.174Z,6.00
2023-01-22T05:43:24.998Z,6.00
2023-01-22T05:46:03.703Z,6.00
2023-01-22T05:49:02.920Z,6.00
2023-01-22T05:51:32.512Z,6.00
2023-01-22T05:53:59.765Z,6.00
2023-01-22T05:56:29.906Z,6.00
2023-01-22T05:58:57.958Z,6.00
2023-01-22T06:01:25.221Z,6.00
2023-01-22T06:03:53.694Z,6.00
2023-01-22T06:06:23.561Z,6.10
2023-01-22T06:08:52.741Z,6.10
2023-01-22T06:11:21.642Z,6.10
2023-01-22T06:13:48.779Z,6.10
2023-01-22T06:16:20.645Z,6.10
2023-01-22T06:19:06.521Z,6.10
2023-01-22T06:21:44.075Z,6.10
2023-01-22T06:24:11.780Z,6.10
2023-01-22T06:26:38.708Z,6.10
2023-01-22T06:29:07.919Z,6.10
2023-01-22T06:31:35.350Z,6.10
2023-01-22T06:34:06.136Z,6.20
2023-01-22T06:36:32.993Z,6.20
2023-01-22T06:38:59.946Z,6.20
2023-01-22T06:41:38.872Z,6.20
2023-01-22T06:44:08.583Z,6.20
2023-01-22T06:46:35.472Z,6.20
2023-01-22T06:49:10.946Z,6.20
2023-01-22T06:51:39.904Z,6.30
2023-01-22T06:54:07.325Z,6.30
2023-01-22T06:56:34.324Z,6.30
2023-01-22T06:59:03.644Z,6.30
2023-01-22T07:01:30.528Z,6.30
2023-01-22T07:03:58.482Z,6.20
2023-01-22T07:06:25.347Z,6.30
2023-01-22T07:08:52.244Z,6.30
2023-01-22T07:11:19.436Z,6.30
2023-01-22T07:13:46.218Z,6.30
2023-01-22T07:16:13.514Z,6.30
2023-01-22T07:18:40.616Z,6.30
2023-01-22T07:21:07.553Z,6.30
2023-01-22T07:23:34.412Z,6.30
2023-01-22T07:26:01.427Z,6.20
2023-01-22T07:28:28.226Z,6.30
2023-01-22T07:30:56.889Z,6.30
2023-01-22T07:33:23.872Z,6.20
2023-01-22T07:35:57.455Z,6.30
2023-01-22T07:38:27.687Z,6.30
2023-01-22T07:40:59.716Z,6.30
2023-01-22T07:43:26.645Z,6.30
2023-01-22T07:45:54.072Z,6.30
2023-01-22T07:48:20.838Z,6.30
2023-01-22T07:50:47.613Z,6.30
2023-01-22T07:53:14.410Z,6.30
2023-01-22T07:55:41.648Z,6.30
2023-01-22T07:58:08.587Z,6.30
2023-01-22T08:00:36.023Z,6.30
2023-01-22T08:03:06.515Z,6.30
2023-01-22T08:05:33.390Z,6.30
2023-01-22T08:08:00.225Z,6.30
2023-01-22T08:10:27.441Z,6.30
2023-01-22T08:12:54.232Z,6.30
2023-01-22T08:15:21.232Z,6.30
2023-01-22T08:17:51.311Z,6.30
2023-01-22T08:20:18.877Z,6.30
2023-01-22T08:22:45.891Z,6.30
2023-01-22T08:25:12.685Z,6.40
2023-01-22T08:27:39.564Z,6.40
2023-01-22T08:30:07.833Z,6.40
2023-01-22T08:32:34.960Z,6.40
2023-01-22T08:35:01.796Z,6.40
2023-01-22T08:37:28.575Z,6.40
2023-01-22T08:39:55.443Z,6.40
2023-01-22T08:42:22.301Z,6.40
2023-01-22T08:44:49.082Z,6.40
2023-01-22T08:47:15.965Z,6.40
2023-01-22T08:49:42.759Z,6.40
2023-01-22T08:52:09.590Z,6.40
2023-01-22T08:54:36.406Z,6.40
2023-01-22T08:57:03.301Z,6.40
2023-01-22T08:59:31.243Z,6.40
2023-01-22T09:01:59.748Z,6.50
2023-01-22T09:04:27.282Z,6.50
2023-01-22T09:06:54.507Z,6.50
2023-01-22T09:09:21.373Z,6.50
2023-01-22T09:11:48.320Z,6.50
2023-01-22T09:14:15.097Z,6.50
2023-01-22T09:16:41.919Z,6.50
2023-01-22T09:19:09.957Z,6.50
2023-01-22T09:21:39.540Z,6.60
2023-01-22T09:24:07.523Z,6.60
2023-01-22T09:26:34.959Z,6.60
2023-01-22T09:29:04.168Z,6.60
2023-01-22T09:31:31.368Z,6.70
2023-01-22T09:33:58.807Z,6.70
2023-01-22T09:36:25.721Z,6.70
2023-01-22T09:38:52.839Z,6.70
2023-01-22T09:41:36.141Z,6.70
2023-01-22T09:44:20.634Z,6.80
2023-01-22T09:46:56.675Z,6.80
2023-01-22T09:49:36.963Z,6.80
2023-01-22T09:52:06.251Z,6.80
2023-01-22T09:54:33.869Z,6.80
2023-01-22T09:57:04.123Z,6.80
2023-01-22T09:59:49.710Z,6.80
2023-01-22T10:02:38.586Z,6.80
2023-01-22T10:05:31.617Z,6.80
2023-01-22T10:08:11.723Z,6.80
2023-01-22T10:10:38.823Z,6.80
2023-01-22T10:13:24.976Z,6.80
2023-01-22T10:15:53.716Z,6.80
2023-01-22T10:18:35.322Z,6.80
2023-01-22T10:21:07.037Z,6.90
2023-01-22T10:23:34.648Z,6.90
2023-01-22T10:26:51.968Z,6.90
2023-01-22T10:29:33.400Z,6.90
2023-01-22T10:32:02.899Z,6.90
2023-01-22T10:34:35.821Z,7.00
2023-01-22T10:37:12.759Z,7.00
2023-01-22T10:39:45.107Z,7.00
2023-01-22T10:42:20.284Z,7.00
2023-01-22T10:44:47.567Z,7.00
2023-01-22T10:47:22.832Z,7.00
2023-01-22T10:50:06.302Z,7.00
2023-01-22T10:52:42.761Z,7.00
2023-01-22T10:55:28.966Z,7.10
2023-01-22T10:58:03.968Z,7.10
2023-01-22T11:00:51.481Z,7.10
2023-01-22T11:03:28.682Z,7.10
2023-01-22T11:06:03.950Z,7.10
2023-01-22T11:08:43.871Z,7.10
2023-01-22T11:11:12.812Z,7.20
2023-01-22T11:13:56.425Z,7.20
2023-01-22T11:16:25.130Z,7.20
2023-01-22T11:18:57.625Z,7.20
2023-01-22T11:21:34.873Z,7.20
2023-01-22T11:24:17.085Z,7.20
2023-01-22T11:27:06.888Z,7.30
2023-01-22T11:30:01.852Z,7.30
2023-01-22T11:32:46.722Z,7.30
2023-01-22T11:35:38.587Z,7.30
2023-01-22T11:38:20.211Z,7.30
2023-01-22T11:40:55.716Z,7.40
2023-01-22T11:43:41.340Z,7.40
2023-01-22T11:46:23.400Z,7.40
2023-01-22T11:49:13.402Z,7.40
2023-01-22T11:51:57.741Z,7.40
2023-01-22T11:55:02.999Z,7.40
2023-01-22T11:57:37.028Z,7.40
2023-01-22T12:00:18.230Z,7.40
2023-01-22T12:02:51.138Z,7.40
2023-01-22T12:05:42.958Z,7.40
2023-01-22T12:08:47.500Z,7.40
2023-01-22T12:11:56.201Z,7.40
2023-01-22T12:15:03.715Z,7.40
2023-01-22T12:17:54.285Z,7.40
2023-01-22T12:20:35.595Z,7.40
2023-01-22T12:23:12.285Z,7.40
2023-01-22T12:25:50.536Z,7.50
2023-01-22T12:28:48.409Z,7.50
2023-01-22T12:31:26.480Z,7.40
2023-01-22T12:33:53.306Z,7.50
2023-01-22T12:36:23.799Z,7.50
2023-01-22T12:39:03.385Z,7.50
2023-01-22T12:42:00.788Z,7.40
2023-01-22T12:44:43.729Z,7.40
2023-01-22T12:47:29.430Z,7.50
2023-01-22T12:49:56.259Z,7.50
2023-01-22T12:52:32.278Z,7.50
2023-01-22T12:55:00.520Z,7.50
2023-01-22T12:57:38.193Z,7.50
2023-01-22T13:00:22.474Z,7.50
2023-01-22T13:02:49.453Z,7.50
2023-01-22T13:05:27.159Z,7.50
2023-01-22T13:08:03.005Z,7.50
2023-01-22T13:10:31.509Z,7.50
2023-01-22T13:13:22.289Z,7.50
2023-01-22T13:16:00.250Z,7.50
2023-01-22T13:18:30.861Z,7.50
2023-01-22T13:21:05.789Z,7.50
2023-01-22T13:23:35.987Z,7.50
2023-01-22T13:26:04.120Z,7.50
2023-01-22T13:28:31.819Z,7.50
2023-01-22T13:31:05.873Z,7.50
2023-01-22T13:33:32.756Z,7.50
2023-01-22T13:36:10.898Z,7.50
2023-01-22T13:38:37.830Z,7.50
2023-01-22T13:41:04.584Z,7.50
2023-01-22T13:43:33.380Z,7.60
2023-01-22T13:46:01.029Z,7.60
2023-01-22T13:48:27.935Z,7.60
2023-01-22T13:50:58.898Z,7.60
2023-01-22T13:53:43.897Z,7.60
2023-01-22T13:56:17.429Z,7.60
2023-01-22T13:58:48.861Z,7.60
2023-01-22T14:01:31.048Z,7.60
2023-01-22T14:04:03.467Z,7.60
2023-01-22T14:06:31.128Z,7.70
2023-01-22T14:08:58.422Z,7.60
2023-01-22T14:11:25.297Z,7.70
2023-01-22T14:13:53.453Z,7.70
2023-01-22T14:16:20.632Z,7.70
2023-01-22T14:18:47.734Z,7.70
2023-01-22T14:21:14.951Z,7.70
2023-01-22T14:23:42.754Z,7.70
2023-01-22T14:26:09.946Z,7.70
2023-01-22T14:28:37.443Z,7.70
2023-01-22T14:31:05.052Z,7.70
2023-01-22T14:33:33.734Z,7.70
2023-01-22T14:36:01.197Z,7.70
2023-01-22T14:38:28.331Z,7.70
2023-01-22T14:40:55.666Z,7.70
2023-01-22T14:43:22.859Z,7.70
2023-01-22T14:45:49.750Z,7.70
2023-01-22T14:48:18.460Z,7.70
2023-01-22T14:50:45.375Z,7.70
2023-01-22T14:53:13.413Z,7.70
2023-01-22T14:55:42.454Z,7.70
2023-01-22T14:58:10.317Z,7.70
2023-01-22T15:00:37.492Z,7.70
2023-01-22T15:03:04.719Z,7.70
2023-01-22T15:05:33.313Z,7.70
2023-01-22T15:08:01.568Z,7.80
2023-01-22T15:10:28.855Z,7.70
2023-01-22T15:12:55.728Z,7.80
2023-01-22T15:15:26.398Z,7.80
2023-01-22T15:17:54.659Z,7.80
2023-01-22T15:20:22.288Z,7.70
2023-01-22T15:22:52.222Z,7.70
2023-01-22T15:25:19.223Z,7.80
2023-01-22T15:27:46.314Z,7.80
2023-01-22T15:30:14.373Z,7.80
2023-01-22T15:32:41.691Z,7.80
2023-01-22T15:35:09.122Z,7.70
2023-01-22T15:37:35.905Z,7.70
2023-01-22T15:40:02.762Z,7.70
2023-01-22T15:42:29.584Z,7.70
2023-01-22T15:44:56.394Z,7.70
2023-01-22T15:47:23.203Z,7.70
2023-01-22T15:49:50.155Z,7.70
2023-01-22T15:52:17.006Z,7.70
2023-01-22T15:54:43.838Z,7.70
2023-01-22T15:57:10.662Z,7.70
2023-01-22T15:59:38.878Z,7.70
2023-01-22T16:02:06.101Z,7.70
2023-01-22T16:04:32.909Z,7.70
2023-01-22T16:06:59.695Z,7.70
2023-01-22T16:09:26.539Z,7.70
2023-01-22T16:11:53.323Z,7.70
2023-01-22T16:14:20.061Z,7.70
2023-01-22T16:16:46.864Z,7.70
2023-01-22T16:19:13.907Z,7.70
2023-01-22T16:21:40.776Z,7.70
2023-01-22T16:24:07.835Z,7.70
2023-01-22T16:26:35.732Z,7.70
2023-01-22T16:29:04.729Z,7.70
2023-01-22T16:31:35.486Z,7.70
2023-01-22T16:34:14.779Z,7.70
2023-01-22T16:36:42.376Z,7.70
2023-01-22T16:39:16.672Z,7.70
2023-01-22T16:41:43.502Z,7.70
2023-01-22T16:44:16.472Z,7.70
2023-01-22T16:46:46.738Z,7.70
2023-01-22T16:49:15.003Z,7.70
2023-01-22T16:51:44.925Z,7.70
2023-01-22T16:54:22.292Z,7.70
2023-01-22T16:56:50.311Z,7.60
2023-01-22T16:59:17.305Z,7.60
2023-01-22T17:01:44.288Z,7.70
2023-01-22T17:04:11.221Z,7.70
2023-01-22T17:06:41.129Z,7.60
2023-01-22T17:09:14.000Z,7.60
2023-01-22T17:11:42.433Z,7.60
2023-01-22T17:14:10.330Z,7.60
2023-01-22T17:16:38.115Z,7.60
2023-01-22T17:19:05.200Z,7.60
2023-01-22T17:21:32.301Z,7.60
2023-01-22T17:23:59.236Z,7.60
2023-01-22T17:26:26.300Z,7.60
2023-01-22T17:28:53.348Z,7.60
2023-01-22T17:31:24.648Z,7.60
2023-01-22T17:33:55.381Z,7.60
2023-01-22T17:36:24.262Z,7.60
2023-01-22T17:38:52.328Z,7.60
2023-01-22T17:41:22.293Z,7.60
2023-01-22T17:43:52.388Z,7.60
2023-01-22T17:46:22.557Z,7.60
2023-01-22T17:48:52.085Z,7.60
2023-01-22T17:51:24.664Z,7.60
2023-01-22T17:53:52.681Z,7.60
2023-01-22T17:56:31.142Z,7.60
2023-01-22T17:59:00.856Z,7.60
2023-01-22T18:01:30.439Z,7.60
2023-01-22T18:04:02.957Z,7.60
2023-01-22T18:06:30.653Z,7.60
2023-01-22T18:08:57.880Z,7.60
2023-01-22T18:11:29.951Z,7.60
2023-01-22T18:14:02.246Z,7.50
2023-01-22T18:16:32.136Z,7.50
2023-01-22T18:19:01.631Z,7.50
2023-01-22T18:21:29.189Z,7.50
2023-01-22T18:23:56.435Z,7.50
2023-01-22T18:26:23.914Z,7.50
2023-01-22T18:28:51.824Z,7.50
2023-01-22T18:31:24.705Z,7.50
2023-01-22T18:33:52.664Z,7.50
2023-01-22T18:36:22.695Z,7.50
2023-01-22T18:38:50.242Z,7.50
2023-01-22T18:41:25.186Z,7.50
2023-01-22T18:43:56.150Z,7.50
2023-01-22T18:46:25.887Z,7.40
2023-01-22T18:48:58.963Z,7.50
2023-01-22T18:51:26.821Z,7.50
2023-01-22T18:53:54.334Z,7.50
2023-01-22T18:56:21.642Z,7.50
2023-01-22T18:58:49.661Z,7.50
2023-01-22T19:01:19.940Z,7.50
2023-01-22T19:03:50.308Z,7.50
2023-01-22T19:06:19.777Z,7.50
2023-01-22T19:09:08.926Z,7.50
2023-01-22T19:11:38.111Z,7.50
2023-01-22T19:14:07.374Z,7.50
2023-01-22T19:16:34.677Z,7.50
2023-01-22T19:19:04.209Z,7.50
2023-01-22T19:21:31.198Z,7.50
2023-01-22T19:24:01.206Z,7.50
2023-01-22T19:26:33.636Z,7.50
2023-01-22T19:29:02.921Z,7.50
2023-01-22T19:31:32.365Z,7.50
2023-01-22T19:34:00.211Z,7.50
2023-01-22T19:36:30.980Z,7.40
2023-01-22T19:39:00.255Z,7.50
2023-01-22T19:41:28.066Z,7.40
2023-01-22T19:43:56.805Z,7.40
2023-01-22T19:46:23.787Z,7.40
2023-01-22T19:48:50.588Z,7.40
2023-01-22T19:51:18.944Z,7.40
2023-01-22T19:53:47.727Z,7.40
2023-01-22T19:56:23.605Z,7.40
2023-01-22T19:58:51.436Z,7.40
2023-01-22T20:01:19.042Z,7.40
2023-01-22T20:03:46.265Z,7.40
2023-01-22T20:06:14.459Z,7.40
2023-01-22T20:08:41.865Z,7.40
2023-01-22T20:11:10.415Z,7.40
2023-01-22T20:13:38.388Z,7.40
2023-01-22T20:16:06.786Z,7.40
2023-01-22T20:18:34.342Z,7.40
2023-01-22T20:21:02.639Z,7.40
2023-01-22T20:23:29.829Z,7.40
2023-01-22T20:25:59.075Z,7.40
2023-01-22T20:28:26.410Z,7.40
2023-01-22T20:31:01.170Z,7.40
2023-01-22T20:33:28.668Z,7.40
2023-01-22T20:36:00.596Z,7.40
2023-01-22T20:38:29.050Z,7.40
2023-01-22T20:41:00.371Z,7.40
2023-01-22T20:43:28.232Z,7.40
2023-01-22T20:46:12.879Z,7.40
2023-01-22T20:48:40.262Z,7.30
2023-01-22T20:51:14.460Z,7.30
2023-01-22T20:53:42.256Z,7.30
2023-01-22T20:56:13.054Z,7.30
2023-01-22T20:58:40.086Z,7.30
2023-01-22T21:01:14.679Z,7.30
2023-01-22T21:03:43.496Z,7.30
2023-01-22T21:06:14.184Z,7.30
2023-01-22T21:08:42.076Z,7.30
2023-01-22T21:11:12.558Z,7.30
2023-01-22T21:13:39.644Z,7.20
2023-01-22T21:16:13.603Z,7.20
2023-01-22T21:18:43.669Z,7.20
2023-01-22T21:21:12.528Z,7.20
2023-01-22T21:23:39.978Z,7.30
2023-01-22T21:26:09.471Z,7.20
2023-01-22T21:28:37.637Z,7.20
2023-01-22T21:31:18.055Z,7.20
2023-01-22T21:33:46.434Z,7.20
2023-01-22T21:36:13.791Z,7.20
2023-01-22T21:38:40.581Z,7.20
2023-01-22T21:41:13.455Z,7.20
2023-01-22T21:44:01.073Z,7.20
2023-01-22T21:46:30.664Z,7.20
2023-01-22T21:48:59.577Z,7.20
2023-01-22T21:51:27.458Z,7.20
2023-01-22T21:53:56.297Z,7.20
2023-01-22T21:56:23.929Z,7.20
2023-01-22T21:58:50.832Z,7.20
2023-01-22T22:01:21.347Z,7.20
2023-01-22T22:03:48.390Z,7.20
2023-01-22T22:06:15.326Z,7.20
2023-01-22T22:08:45.239Z,7.10
2023-01-22T22:11:14.322Z,7.10
2023-01-22T22:13:41.482Z,7.10
2023-01-22T22:16:08.847Z,7.10
2023-01-22T22:18:36.147Z,7.10
2023-01-22T22:21:07.500Z,7.10
2023-01-22T22:23:36.532Z,7.10
2023-01-22T22:26:05.858Z,7.10
2023-01-22T22:28:33.872Z,7.10
2023-01-22T22:31:15.385Z,7.10
2023-01-22T22:33:43.909Z,7.10
2023-01-22T22:36:12.010Z,7.10
2023-01-22T22:38:39.383Z,7.10
2023-01-22T22:41:12.811Z,7.10
2023-01-22T22:43:46.038Z,7.10
2023-01-22T22:46:24.801Z,7.10
2023-01-22T22:48:52.955Z,7.10
2023-01-22T22:51:29.482Z,7.10
2023-01-22T22:53:59.543Z,7.10
2023-01-22T22:56:27.937Z,7.10
2023-01-22T22:58:55.800Z,7.10
2023-01-22T23:01:24.661Z,7.10
2023-01-22T23:03:53.413Z,7.00
2023-01-22T23:06:26.853Z,7.00
2023-01-22T23:09:08.696Z,7.00
2023-01-22T23:11:36.452Z,7.00
2023-01-22T23:14:04.191Z,7.00
2023-01-22T23:16:34.421Z,7.00
2023-01-22T23:19:03.747Z,7.00
2023-01-22T23:21:30.963Z,7.00
2023-01-22T23:23:57.853Z,7.00
2023-01-22T23:26:29.701Z,7.00
2023-01-22T23:29:00.451Z,7.00
2023-01-22T23:31:28.587Z,7.00
2023-01-22T23:33:56.391Z,7.00
2023-01-22T23:36:23.635Z,7.00
2023-01-22T23:38:50.427Z,7.10
2023-01-22T23:41:18.968Z,7.00
2023-01-22T23:43:46.230Z,7.00
2023-01-22T23:46:16.322Z,7.00
2023-01-22T23:48:43.452Z,7.00
2023-01-22T23:51:12.960Z,7.00
2023-01-22T23:53:42.277Z,7.00
2023-01-22T23:56:11.116Z,7.00
2023-01-22T23:58:38.804Z,7.00
